sensor_id;sensor_type;location;lat;lon;timestamp;temperature;humidity
63802;DHT22;49949;43.060;25.624;2023-09-18T00:00:49;16.60;99.90
63802;DHT22;49949;43.060;25.624;2023-09-18T00:03:18;16.60;99.90
63802;DHT22;49949;43.060;25.624;2023-09-18T00:05:49;16.50;99.90
63802;DHT22;49949;43.060;25.624;2023-09-18T00:08:15;16.50;99.90
63802;DHT22;49949;43.060;25.624;2023-09-18T00:10:42;16.50;99.90
63802;DHT22;49949;43.060;25.624;2023-09-18T00:13:08;16.40;99.90
63802;DHT22;49949;43.060;25.624;2023-09-18T00:15:34;16.40;99.90
63802;DHT22;49949;43.060;25.624;2023-09-18T00:18:00;16.30;99.90
63802;DHT22;49949;43.060;25.624;2023-09-18T00:20:26;16.30;99.90
63802;DHT22;49949;43.060;25.624;2023-09-18T00:22:55;16.30;99.90
63802;DHT22;49949;43.060;25.624;2023-09-18T00:25:22;16.30;99.90
63802;DHT22;49949;43.060;25.624;2023-09-18T00:27:47;16.20;99.90
63802;DHT22;49949;43.060;25.624;2023-09-18T00:30:13;16.20;99.90
63802;DHT22;49949;43.060;25.624;2023-09-18T00:32:39;16.10;99.90
63802;DHT22;49949;43.060;25.624;2023-09-18T00:35:05;16.20;99.90
63802;DHT22;49949;43.060;25.624;2023-09-18T00:37:31;16.10;99.90
63802;DHT22;49949;43.060;25.624;2023-09-18T00:39:56;16.00;99.90
63802;DHT22;49949;43.060;25.624;2023-09-18T00:42:22;16.00;99.90
63802;DHT22;49949;43.060;25.624;2023-09-18T00:44:48;16.00;99.90
63802;DHT22;49949;43.060;25.624;2023-09-18T00:47:15;16.00;99.90
63802;DHT22;49949;43.060;25.624;2023-09-18T00:49:45;16.00;99.90
63802;DHT22;49949;43.060;25.624;2023-09-18T00:52:12;16.00;99.90
63802;DHT22;49949;43.060;25.624;2023-09-18T00:54:38;16.00;99.90
63802;DHT22;49949;43.060;25.624;2023-09-18T00:57:05;16.00;99.90
63802;DHT22;49949;43.060;25.624;2023-09-18T00:59:31;15.80;99.90
63802;DHT22;49949;43.060;25.624;2023-09-18T01:01:59;15.80;99.90
63802;DHT22;49949;43.060;25.624;2023-09-18T01:04:26;15.90;99.90
63802;DHT22;49949;43.060;25.624;2023-09-18T01:06:54;15.80;99.90
63802;DHT22;49949;43.060;25.624;2023-09-18T01:09:22;15.70;99.90
63802;DHT22;49949;43.060;25.624;2023-09-18T01:11:59;15.70;99.90
63802;DHT22;49949;43.060;25.624;2023-09-18T01:14:55;15.70;99.90
63802;DHT22;49949;43.060;25.624;2023-09-18T01:17:22;15.70;99.90
63802;DHT22;49949;43.060;25.624;2023-09-18T01:19:48;15.70;99.90
63802;DHT22;49949;43.060;25.624;2023-09-18T01:22:18;15.70;99.90
63802;DHT22;49949;43.060;25.624;2023-09-18T01:24:46;15.70;99.90
63802;DHT22;49949;43.060;25.624;2023-09-18T01:27:16;15.60;99.90
63802;DHT22;49949;43.060;25.624;2023-09-18T01:29:46;15.60;99.90
63802;DHT22;49949;43.060;25.624;2023-09-18T01:32:12;15.50;99.90
63802;DHT22;49949;43.060;25.624;2023-09-18T01:34:44;15.40;99.90
63802;DHT22;49949;43.060;25.624;2023-09-18T01:37:12;15.50;99.90
63802;DHT22;49949;43.060;25.624;2023-09-18T01:39:38;15.50;99.90
63802;DHT22;49949;43.060;25.624;2023-09-18T01:42:06;15.40;99.90
63802;DHT22;49949;43.060;25.624;2023-09-18T01:44:33;15.40;99.90
63802;DHT22;49949;43.060;25.624;2023-09-18T01:47:00;15.40;99.90
63802;DHT22;49949;43.060;25.624;2023-09-18T01:49:34;15.30;99.90
63802;DHT22;49949;43.060;25.624;2023-09-18T01:52:00;15.30;99.90
63802;DHT22;49949;43.060;25.624;2023-09-18T01:54:26;15.30;99.90
63802;DHT22;49949;43.060;25.624;2023-09-18T01:56:52;15.30;99.90
63802;DHT22;49949;43.060;25.624;2023-09-18T01:59:19;15.20;99.90
63802;DHT22;49949;43.060;25.624;2023-09-18T02:01:45;15.20;99.90
63802;DHT22;49949;43.060;25.624;2023-09-18T02:04:11;15.10;99.90
63802;DHT22;49949;43.060;25.624;2023-09-18T02:06:36;15.20;99.90
63802;DHT22;49949;43.060;25.624;2023-09-18T02:09:02;15.20;99.90
63802;DHT22;49949;43.060;25.624;2023-09-18T02:11:31;15.20;99.90
63802;DHT22;49949;43.060;25.624;2023-09-18T02:13:56;15.10;99.90
63802;DHT22;49949;43.060;25.624;2023-09-18T02:16:22;15.10;99.90
63802;DHT22;49949;43.060;25.624;2023-09-18T02:18:50;15.10;99.90
63802;DHT22;49949;43.060;25.624;2023-09-18T02:21:19;15.10;99.90
63802;DHT22;49949;43.060;25.624;2023-09-18T02:23:48;15.10;99.90
63802;DHT22;49949;43.060;25.624;2023-09-18T02:26:14;15.00;99.90
63802;DHT22;49949;43.060;25.624;2023-09-18T02:28:39;15.00;99.90
63802;DHT22;49949;43.060;25.624;2023-09-18T02:31:05;15.00;99.90
63802;DHT22;49949;43.060;25.624;2023-09-18T02:33:31;15.00;99.90
63802;DHT22;49949;43.060;25.624;2023-09-18T02:35:56;14.90;99.90
63802;DHT22;49949;43.060;25.624;2023-09-18T02:38:22;14.90;99.90
63802;DHT22;49949;43.060;25.624;2023-09-18T02:40:48;14.90;99.90
63802;DHT22;49949;43.060;25.624;2023-09-18T02:43:14;14.90;99.90
63802;DHT22;49949;43.060;25.624;2023-09-18T02:45:40;14.80;99.90
63802;DHT22;49949;43.060;25.624;2023-09-18T02:48:06;14.80;99.90
63802;DHT22;49949;43.060;25.624;2023-09-18T02:50:31;14.80;99.90
63802;DHT22;49949;43.060;25.624;2023-09-18T02:52:57;14.80;99.90
63802;DHT22;49949;43.060;25.624;2023-09-18T02:55:23;14.80;99.90
63802;DHT22;49949;43.060;25.624;2023-09-18T02:57:48;14.80;99.90
63802;DHT22;49949;43.060;25.624;2023-09-18T03:00:14;14.70;99.90
63802;DHT22;49949;43.060;25.624;2023-09-18T03:02:40;14.70;99.90
63802;DHT22;49949;43.060;25.624;2023-09-18T03:05:06;14.60;99.90
63802;DHT22;49949;43.060;25.624;2023-09-18T03:07:32;14.70;99.90
63802;DHT22;49949;43.060;25.624;2023-09-18T03:09:57;14.60;99.90
63802;DHT22;49949;43.060;25.624;2023-09-18T03:12:23;14.70;99.90
63802;DHT22;49949;43.060;25.624;2023-09-18T03:14:49;14.60;99.90
63802;DHT22;49949;43.060;25.624;2023-09-18T03:17:14;14.60;99.90
63802;DHT22;49949;43.060;25.624;2023-09-18T03:19:40;14.60;99.90
63802;DHT22;49949;43.060;25.624;2023-09-18T03:22:05;14.60;99.90
63802;DHT22;49949;43.060;25.624;2023-09-18T03:24:31;14.60;99.90
63802;DHT22;49949;43.060;25.624;2023-09-18T03:26:57;14.50;99.90
63802;DHT22;49949;43.060;25.624;2023-09-18T03:29:22;14.50;99.90
63802;DHT22;49949;43.060;25.624;2023-09-18T03:31:48;14.50;99.90
63802;DHT22;49949;43.060;25.624;2023-09-18T03:34:14;14.50;99.90
63802;DHT22;49949;43.060;25.624;2023-09-18T03:36:39;14.40;99.90
63802;DHT22;49949;43.060;25.624;2023-09-18T03:39:05;14.40;99.90
63802;DHT22;49949;43.060;25.624;2023-09-18T03:41:31;14.40;99.90
63802;DHT22;49949;43.060;25.624;2023-09-18T03:44:00;14.40;99.90
63802;DHT22;49949;43.060;25.624;2023-09-18T03:46:26;14.40;99.90
63802;DHT22;49949;43.060;25.624;2023-09-18T03:48:52;14.40;99.90
63802;DHT22;49949;43.060;25.624;2023-09-18T03:51:18;14.40;99.90
63802;DHT22;49949;43.060;25.624;2023-09-18T03:53:44;14.40;99.90
63802;DHT22;49949;43.060;25.624;2023-09-18T03:56:10;14.40;99.90
63802;DHT22;49949;43.060;25.624;2023-09-18T03:58:36;14.30;99.90
63802;DHT22;49949;43.060;25.624;2023-09-18T04:01:02;14.30;99.90
63802;DHT22;49949;43.060;25.624;2023-09-18T04:03:27;14.30;99.90
63802;DHT22;49949;43.060;25.624;2023-09-18T04:05:53;14.20;99.90
63802;DHT22;49949;43.060;25.624;2023-09-18T04:08:19;14.20;99.90
63802;DHT22;49949;43.060;25.624;2023-09-18T04:10:44;14.20;99.90
63802;DHT22;49949;43.060;25.624;2023-09-18T04:13:10;14.20;99.90
63802;DHT22;49949;43.060;25.624;2023-09-18T04:15:37;14.20;99.90
63802;DHT22;49949;43.060;25.624;2023-09-18T04:18:04;14.20;99.90
63802;DHT22;49949;43.060;25.624;2023-09-18T04:20:30;14.20;99.90
63802;DHT22;49949;43.060;25.624;2023-09-18T04:25:45;14.20;99.90
63802;DHT22;49949;43.060;25.624;2023-09-18T04:28:12;14.30;99.90
63802;DHT22;49949;43.060;25.624;2023-09-18T04:30:38;14.30;99.90
63802;DHT22;49949;43.060;25.624;2023-09-18T04:33:04;14.30;99.90
63802;DHT22;49949;43.060;25.624;2023-09-18T04:35:29;14.30;99.90
63802;DHT22;49949;43.060;25.624;2023-09-18T04:37:58;14.30;99.90
63802;DHT22;49949;43.060;25.624;2023-09-18T04:40:24;14.40;99.90
63802;DHT22;49949;43.060;25.624;2023-09-18T04:42:50;14.30;99.90
63802;DHT22;49949;43.060;25.624;2023-09-18T04:45:16;14.40;99.90
63802;DHT22;49949;43.060;25.624;2023-09-18T04:47:41;14.40;99.90
63802;DHT22;49949;43.060;25.624;2023-09-18T04:50:08;14.50;99.90
63802;DHT22;49949;43.060;25.624;2023-09-18T04:52:34;14.50;99.90
63802;DHT22;49949;43.060;25.624;2023-09-18T04:54:59;14.60;99.90
63802;DHT22;49949;43.060;25.624;2023-09-18T04:57:25;14.60;99.90
63802;DHT22;49949;43.060;25.624;2023-09-18T04:59:51;14.60;99.90
63802;DHT22;49949;43.060;25.624;2023-09-18T05:02:16;14.70;99.90
63802;DHT22;49949;43.060;25.624;2023-09-18T05:04:42;14.80;99.90
63802;DHT22;49949;43.060;25.624;2023-09-18T05:07:08;14.80;99.90
63802;DHT22;49949;43.060;25.624;2023-09-18T05:09:34;14.90;99.90
63802;DHT22;49949;43.060;25.624;2023-09-18T05:12:00;14.90;99.90
63802;DHT22;49949;43.060;25.624;2023-09-18T05:14:26;14.90;99.90
63802;DHT22;49949;43.060;25.624;2023-09-18T05:16:53;15.00;99.90
63802;DHT22;49949;43.060;25.624;2023-09-18T05:19:18;15.10;99.90
63802;DHT22;49949;43.060;25.624;2023-09-18T05:21:44;15.10;99.90
63802;DHT22;49949;43.060;25.624;2023-09-18T05:24:10;15.20;99.90
63802;DHT22;49949;43.060;25.624;2023-09-18T05:26:35;15.20;99.90
63802;DHT22;49949;43.060;25.624;2023-09-18T05:29:01;15.30;99.90
63802;DHT22;49949;43.060;25.624;2023-09-18T05:31:28;15.30;99.90
63802;DHT22;49949;43.060;25.624;2023-09-18T05:33:54;15.40;99.90
63802;DHT22;49949;43.060;25.624;2023-09-18T05:36:19;15.40;99.90
63802;DHT22;49949;43.060;25.624;2023-09-18T05:38:45;15.50;99.90
63802;DHT22;49949;43.060;25.624;2023-09-18T05:41:11;15.50;99.90
63802;DHT22;49949;43.060;25.624;2023-09-18T05:43:36;15.60;99.90
63802;DHT22;49949;43.060;25.624;2023-09-18T05:46:02;15.70;99.90
63802;DHT22;49949;43.060;25.624;2023-09-18T05:48:28;15.80;99.90
63802;DHT22;49949;43.060;25.624;2023-09-18T05:50:53;15.90;99.90
63802;DHT22;49949;43.060;25.624;2023-09-18T05:53:20;16.00;99.90
63802;DHT22;49949;43.060;25.624;2023-09-18T05:55:47;16.10;99.90
63802;DHT22;49949;43.060;25.624;2023-09-18T05:58:13;16.30;99.90
63802;DHT22;49949;43.060;25.624;2023-09-18T06:00:39;16.40;99.90
63802;DHT22;49949;43.060;25.624;2023-09-18T06:03:05;16.50;99.90
63802;DHT22;49949;43.060;25.624;2023-09-18T06:05:31;16.60;99.90
63802;DHT22;49949;43.060;25.624;2023-09-18T06:07:59;16.80;99.90
63802;DHT22;49949;43.060;25.624;2023-09-18T06:10:25;16.90;99.90
63802;DHT22;49949;43.060;25.624;2023-09-18T06:12:51;17.00;99.90
63802;DHT22;49949;43.060;25.624;2023-09-18T06:15:17;17.20;99.90
63802;DHT22;49949;43.060;25.624;2023-09-18T06:17:44;17.30;99.90
63802;DHT22;49949;43.060;25.624;2023-09-18T06:20:11;17.50;99.90
63802;DHT22;49949;43.060;25.624;2023-09-18T06:22:41;17.60;99.90
63802;DHT22;49949;43.060;25.624;2023-09-18T06:25:08;17.70;99.90
63802;DHT22;49949;43.060;25.624;2023-09-18T06:27:36;17.80;99.90
63802;DHT22;49949;43.060;25.624;2023-09-18T06:30:03;17.90;99.90
63802;DHT22;49949;43.060;25.624;2023-09-18T06:32:29;18.00;99.90
63802;DHT22;49949;43.060;25.624;2023-09-18T06:34:55;18.20;99.90
63802;DHT22;49949;43.060;25.624;2023-09-18T06:37:23;18.30;99.90
63802;DHT22;49949;43.060;25.624;2023-09-18T06:39:48;18.50;99.90
63802;DHT22;49949;43.060;25.624;2023-09-18T06:42:14;18.70;99.90
63802;DHT22;49949;43.060;25.624;2023-09-18T06:44:40;18.80;99.90
63802;DHT22;49949;43.060;25.624;2023-09-18T06:47:06;19.00;99.90
63802;DHT22;49949;43.060;25.624;2023-09-18T06:49:32;19.10;99.90
63802;DHT22;49949;43.060;25.624;2023-09-18T06:51:58;19.30;99.90
63802;DHT22;49949;43.060;25.624;2023-09-18T06:54:24;19.40;99.90
63802;DHT22;49949;43.060;25.624;2023-09-18T06:56:49;19.50;99.90
63802;DHT22;49949;43.060;25.624;2023-09-18T06:59:15;19.70;99.90
63802;DHT22;49949;43.060;25.624;2023-09-18T07:01:41;19.80;99.90
63802;DHT22;49949;43.060;25.624;2023-09-18T07:04:08;20.00;99.90
63802;DHT22;49949;43.060;25.624;2023-09-18T07:06:34;20.20;99.90
63802;DHT22;49949;43.060;25.624;2023-09-18T07:09:00;20.50;99.90
63802;DHT22;49949;43.060;25.624;2023-09-18T07:11:25;20.70;99.90
63802;DHT22;49949;43.060;25.624;2023-09-18T07:13:51;20.90;99.90
63802;DHT22;49949;43.060;25.624;2023-09-18T07:16:17;21.00;99.90
63802;DHT22;49949;43.060;25.624;2023-09-18T07:18:43;21.10;99.90
63802;DHT22;49949;43.060;25.624;2023-09-18T07:21:09;21.30;99.90
63802;DHT22;49949;43.060;25.624;2023-09-18T07:23:34;21.40;99.90
63802;DHT22;49949;43.060;25.624;2023-09-18T07:26:03;21.50;99.90
63802;DHT22;49949;43.060;25.624;2023-09-18T07:28:29;21.50;99.90
63802;DHT22;49949;43.060;25.624;2023-09-18T07:30:55;21.80;99.90
63802;DHT22;49949;43.060;25.624;2023-09-18T07:33:21;22.10;99.90
63802;DHT22;49949;43.060;25.624;2023-09-18T07:35:50;22.30;99.90
63802;DHT22;49949;43.060;25.624;2023-09-18T07:38:18;22.50;99.90
63802;DHT22;49949;43.060;25.624;2023-09-18T07:40:45;22.70;99.90
63802;DHT22;49949;43.060;25.624;2023-09-18T07:43:12;22.80;99.90
63802;DHT22;49949;43.060;25.624;2023-09-18T07:45:40;22.90;99.90
63802;DHT22;49949;43.060;25.624;2023-09-18T07:48:09;23.20;99.90
63802;DHT22;49949;43.060;25.624;2023-09-18T07:50:35;23.40;99.90
63802;DHT22;49949;43.060;25.624;2023-09-18T07:53:01;23.40;99.90
63802;DHT22;49949;43.060;25.624;2023-09-18T07:55:28;23.50;99.90
63802;DHT22;49949;43.060;25.624;2023-09-18T07:57:54;23.60;97.40
63802;DHT22;49949;43.060;25.624;2023-09-18T08:00:20;23.60;98.10
63802;DHT22;49949;43.060;25.624;2023-09-18T08:02:48;23.70;97.50
63802;DHT22;49949;43.060;25.624;2023-09-18T08:05:16;23.70;96.70
63802;DHT22;49949;43.060;25.624;2023-09-18T08:07:42;23.80;96.10
63802;DHT22;49949;43.060;25.624;2023-09-18T08:10:08;23.90;97.80
63802;DHT22;49949;43.060;25.624;2023-09-18T08:12:35;24.20;93.40
63802;DHT22;49949;43.060;25.624;2023-09-18T08:15:01;24.10;91.60
63802;DHT22;49949;43.060;25.624;2023-09-18T08:17:28;24.10;90.20
63802;DHT22;49949;43.060;25.624;2023-09-18T08:19:54;23.90;91.60
63802;DHT22;49949;43.060;25.624;2023-09-18T08:22:20;23.90;92.00
63802;DHT22;49949;43.060;25.624;2023-09-18T08:24:49;24.10;92.30
63802;DHT22;49949;43.060;25.624;2023-09-18T08:27:18;24.20;91.70
63802;DHT22;49949;43.060;25.624;2023-09-18T08:29:47;24.30;92.00
63802;DHT22;49949;43.060;25.624;2023-09-18T08:32:13;24.50;89.70
63802;DHT22;49949;43.060;25.624;2023-09-18T08:34:38;24.60;88.10
63802;DHT22;49949;43.060;25.624;2023-09-18T08:37:04;24.40;87.80
63802;DHT22;49949;43.060;25.624;2023-09-18T08:39:30;24.60;88.10
63802;DHT22;49949;43.060;25.624;2023-09-18T08:42:03;24.60;88.00
63802;DHT22;49949;43.060;25.624;2023-09-18T08:44:29;24.70;89.00
63802;DHT22;49949;43.060;25.624;2023-09-18T08:46:56;25.20;88.00
63802;DHT22;49949;43.060;25.624;2023-09-18T08:49:25;25.00;88.30
63802;DHT22;49949;43.060;25.624;2023-09-18T08:51:54;25.20;87.60
63802;DHT22;49949;43.060;25.624;2023-09-18T08:54:21;25.00;88.30
63802;DHT22;49949;43.060;25.624;2023-09-18T08:56:50;25.30;87.20
63802;DHT22;49949;43.060;25.624;2023-09-18T08:59:16;25.20;87.30
63802;DHT22;49949;43.060;25.624;2023-09-18T09:01:42;25.40;86.40
63802;DHT22;49949;43.060;25.624;2023-09-18T09:04:08;25.30;86.30
63802;DHT22;49949;43.060;25.624;2023-09-18T09:06:33;25.10;87.40
63802;DHT22;49949;43.060;25.624;2023-09-18T09:09:01;25.20;87.40
63802;DHT22;49949;43.060;25.624;2023-09-18T09:11:27;25.50;86.80
63802;DHT22;49949;43.060;25.624;2023-09-18T09:14:13;25.50;84.80
63802;DHT22;49949;43.060;25.624;2023-09-18T09:16:51;25.70;84.90
63802;DHT22;49949;43.060;25.624;2023-09-18T09:19:18;26.00;83.70
63802;DHT22;49949;43.060;25.624;2023-09-18T09:21:44;26.40;81.70
63802;DHT22;49949;43.060;25.624;2023-09-18T09:24:11;26.40;81.30
63802;DHT22;49949;43.060;25.624;2023-09-18T09:26:40;26.30;79.80
63802;DHT22;49949;43.060;25.624;2023-09-18T09:29:18;26.30;79.70
63802;DHT22;49949;43.060;25.624;2023-09-18T09:31:44;26.10;78.10
63802;DHT22;49949;43.060;25.624;2023-09-18T09:34:25;26.20;78.50
63802;DHT22;49949;43.060;25.624;2023-09-18T09:36:56;26.00;79.10
63802;DHT22;49949;43.060;25.624;2023-09-18T09:39:23;26.40;79.00
63802;DHT22;49949;43.060;25.624;2023-09-18T09:41:53;26.50;76.70
63802;DHT22;49949;43.060;25.624;2023-09-18T09:44:19;26.40;78.90
63802;DHT22;49949;43.060;25.624;2023-09-18T09:46:50;25.80;80.50
63802;DHT22;49949;43.060;25.624;2023-09-18T09:49:17;25.70;81.80
63802;DHT22;49949;43.060;25.624;2023-09-18T09:51:45;25.70;80.90
63802;DHT22;49949;43.060;25.624;2023-09-18T09:54:11;25.90;81.70
63802;DHT22;49949;43.060;25.624;2023-09-18T09:56:48;26.00;79.10
63802;DHT22;49949;43.060;25.624;2023-09-18T09:59:17;26.10;79.10
63802;DHT22;49949;43.060;25.624;2023-09-18T10:01:47;26.30;78.40
63802;DHT22;49949;43.060;25.624;2023-09-18T10:04:15;26.30;77.90
63802;DHT22;49949;43.060;25.624;2023-09-18T10:06:51;26.00;78.10
63802;DHT22;49949;43.060;25.624;2023-09-18T10:09:19;25.80;78.00
63802;DHT22;49949;43.060;25.624;2023-09-18T10:11:48;25.70;78.60
63802;DHT22;49949;43.060;25.624;2023-09-18T10:14:19;25.70;76.90
63802;DHT22;49949;43.060;25.624;2023-09-18T10:16:50;25.50;76.90
63802;DHT22;49949;43.060;25.624;2023-09-18T10:24:46;25.80;74.30
63802;DHT22;49949;43.060;25.624;2023-09-18T10:27:14;25.90;75.40
63802;DHT22;49949;43.060;25.624;2023-09-18T10:29:41;26.10;73.90
63802;DHT22;49949;43.060;25.624;2023-09-18T10:32:08;25.90;72.20
63802;DHT22;49949;43.060;25.624;2023-09-18T10:34:34;25.70;71.80
63802;DHT22;49949;43.060;25.624;2023-09-18T10:37:03;25.80;72.20
63802;DHT22;49949;43.060;25.624;2023-09-18T10:39:35;25.80;73.90
63802;DHT22;49949;43.060;25.624;2023-09-18T10:42:02;25.90;73.30
63802;DHT22;49949;43.060;25.624;2023-09-18T10:44:30;25.80;72.30
63802;DHT22;49949;43.060;25.624;2023-09-18T10:47:00;25.80;73.40
63802;DHT22;49949;43.060;25.624;2023-09-18T10:49:27;25.90;72.90
63802;DHT22;49949;43.060;25.624;2023-09-18T10:51:56;25.90;72.70
63802;DHT22;49949;43.060;25.624;2023-09-18T10:54:24;25.90;72.70
63802;DHT22;49949;43.060;25.624;2023-09-18T10:56:50;26.10;72.70
63802;DHT22;49949;43.060;25.624;2023-09-18T10:59:17;26.40;70.90
63802;DHT22;49949;43.060;25.624;2023-09-18T11:01:43;26.50;71.10
63802;DHT22;49949;43.060;25.624;2023-09-18T11:04:10;26.50;71.00
63802;DHT22;49949;43.060;25.624;2023-09-18T11:14:56;26.40;69.70
63802;DHT22;49949;43.060;25.624;2023-09-18T11:17:39;26.30;69.90
63802;DHT22;49949;43.060;25.624;2023-09-18T11:20:18;26.10;69.00
63802;DHT22;49949;43.060;25.624;2023-09-18T11:22:51;26.20;68.50
63802;DHT22;49949;43.060;25.624;2023-09-18T11:25:36;26.20;69.00
63802;DHT22;49949;43.060;25.624;2023-09-18T11:28:07;26.30;65.50
63802;DHT22;49949;43.060;25.624;2023-09-18T11:30:37;26.20;65.80
63802;DHT22;49949;43.060;25.624;2023-09-18T11:33:04;26.30;66.60
63802;DHT22;49949;43.060;25.624;2023-09-18T11:35:37;26.40;66.90
63802;DHT22;49949;43.060;25.624;2023-09-18T11:38:08;26.40;68.10
63802;DHT22;49949;43.060;25.624;2023-09-18T11:40:37;26.60;68.20
63802;DHT22;49949;43.060;25.624;2023-09-18T11:43:20;26.40;68.50
63802;DHT22;49949;43.060;25.624;2023-09-18T11:45:56;26.50;68.10
63802;DHT22;49949;43.060;25.624;2023-09-18T11:48:23;26.50;64.80
63802;DHT22;49949;43.060;25.624;2023-09-18T11:50:53;26.50;66.70
63802;DHT22;49949;43.060;25.624;2023-09-18T11:53:20;26.50;66.70
63802;DHT22;49949;43.060;25.624;2023-09-18T11:55:46;26.60;66.40
63802;DHT22;49949;43.060;25.624;2023-09-18T11:58:13;26.60;64.60
63802;DHT22;49949;43.060;25.624;2023-09-18T12:00:39;26.70;65.10
63802;DHT22;49949;43.060;25.624;2023-09-18T12:03:22;26.80;66.90
63802;DHT22;49949;43.060;25.624;2023-09-18T12:08:18;26.70;66.20
63802;DHT22;49949;43.060;25.624;2023-09-18T12:10:45;26.60;65.80
63802;DHT22;49949;43.060;25.624;2023-09-18T12:13:13;26.70;65.50
63802;DHT22;49949;43.060;25.624;2023-09-18T12:15:40;26.80;66.50
63802;DHT22;49949;43.060;25.624;2023-09-18T12:18:08;26.70;65.20
63802;DHT22;49949;43.060;25.624;2023-09-18T12:20:37;26.60;65.30
63802;DHT22;49949;43.060;25.624;2023-09-18T12:23:03;26.60;65.30
63802;DHT22;49949;43.060;25.624;2023-09-18T12:25:28;26.60;64.40
63802;DHT22;49949;43.060;25.624;2023-09-18T12:27:55;26.60;63.80
63802;DHT22;49949;43.060;25.624;2023-09-18T12:30:22;26.80;63.70
63802;DHT22;49949;43.060;25.624;2023-09-18T12:32:52;27.10;64.60
63802;DHT22;49949;43.060;25.624;2023-09-18T12:35:18;27.30;63.50
63802;DHT22;49949;43.060;25.624;2023-09-18T12:37:44;27.30;63.20
63802;DHT22;49949;43.060;25.624;2023-09-18T12:40:28;27.30;63.10
63802;DHT22;49949;43.060;25.624;2023-09-18T12:42:56;27.40;62.30
63802;DHT22;49949;43.060;25.624;2023-09-18T12:45:24;27.60;61.30
63802;DHT22;49949;43.060;25.624;2023-09-18T12:47:50;27.40;60.00
63802;DHT22;49949;43.060;25.624;2023-09-18T12:50:17;27.30;62.70
63802;DHT22;49949;43.060;25.624;2023-09-18T12:52:43;27.30;63.70
63802;DHT22;49949;43.060;25.624;2023-09-18T12:55:24;27.30;63.70
63802;DHT22;49949;43.060;25.624;2023-09-18T12:57:50;27.30;64.70
63802;DHT22;49949;43.060;25.624;2023-09-18T13:00:18;27.30;63.70
63802;DHT22;49949;43.060;25.624;2023-09-18T13:02:46;27.40;63.00
63802;DHT22;49949;43.060;25.624;2023-09-18T13:05:12;27.50;63.80
63802;DHT22;49949;43.060;25.624;2023-09-18T13:07:44;27.60;63.10
63802;DHT22;49949;43.060;25.624;2023-09-18T13:10:10;27.20;62.40
63802;DHT22;49949;43.060;25.624;2023-09-18T13:12:54;27.10;63.40
63802;DHT22;49949;43.060;25.624;2023-09-18T13:15:33;27.20;64.10
63802;DHT22;49949;43.060;25.624;2023-09-18T13:18:01;27.40;63.70
63802;DHT22;49949;43.060;25.624;2023-09-18T13:20:34;27.50;63.70
63802;DHT22;49949;43.060;25.624;2023-09-18T13:23:00;27.60;63.20
63802;DHT22;49949;43.060;25.624;2023-09-18T13:25:31;27.70;63.30
63802;DHT22;49949;43.060;25.624;2023-09-18T13:28:00;27.60;63.90
63802;DHT22;49949;43.060;25.624;2023-09-18T13:30:26;27.50;63.20
63802;DHT22;49949;43.060;25.624;2023-09-18T13:33:02;27.50;62.40
63802;DHT22;49949;43.060;25.624;2023-09-18T13:35:29;27.10;62.80
63802;DHT22;49949;43.060;25.624;2023-09-18T13:37:54;27.10;63.80
63802;DHT22;49949;43.060;25.624;2023-09-18T13:40:20;27.20;63.90
63802;DHT22;49949;43.060;25.624;2023-09-18T13:42:47;27.30;63.20
63802;DHT22;49949;43.060;25.624;2023-09-18T13:45:14;27.20;63.70
63802;DHT22;49949;43.060;25.624;2023-09-18T13:47:42;27.10;64.60
63802;DHT22;49949;43.060;25.624;2023-09-18T13:50:08;27.20;65.60
63802;DHT22;49949;43.060;25.624;2023-09-18T13:52:35;27.30;66.00
63802;DHT22;49949;43.060;25.624;2023-09-18T13:55:04;27.30;65.10
63802;DHT22;49949;43.060;25.624;2023-09-18T13:57:31;27.30;65.70
63802;DHT22;49949;43.060;25.624;2023-09-18T13:59:57;27.10;66.20
63802;DHT22;49949;43.060;25.624;2023-09-18T14:02:23;27.10;66.60
63802;DHT22;49949;43.060;25.624;2023-09-18T14:04:53;27.20;66.50
63802;DHT22;49949;43.060;25.624;2023-09-18T14:07:18;27.20;66.30
63802;DHT22;49949;43.060;25.624;2023-09-18T14:09:44;27.20;66.00
63802;DHT22;49949;43.060;25.624;2023-09-18T14:12:11;27.30;66.40
63802;DHT22;49949;43.060;25.624;2023-09-18T14:14:37;27.40;65.40
63802;DHT22;49949;43.060;25.624;2023-09-18T14:17:05;27.40;65.90
63802;DHT22;49949;43.060;25.624;2023-09-18T14:19:31;27.20;66.40
63802;DHT22;49949;43.060;25.624;2023-09-18T14:21:57;27.00;66.00
63802;DHT22;49949;43.060;25.624;2023-09-18T14:24:23;26.90;66.00
63802;DHT22;49949;43.060;25.624;2023-09-18T14:26:54;26.80;66.00
63802;DHT22;49949;43.060;25.624;2023-09-18T14:29:21;26.70;66.50
63802;DHT22;49949;43.060;25.624;2023-09-18T14:31:46;26.70;67.10
63802;DHT22;49949;43.060;25.624;2023-09-18T14:34:12;26.70;66.80
63802;DHT22;49949;43.060;25.624;2023-09-18T14:36:38;26.80;66.40
63802;DHT22;49949;43.060;25.624;2023-09-18T14:39:05;26.70;66.70
63802;DHT22;49949;43.060;25.624;2023-09-18T14:41:37;26.50;68.00
63802;DHT22;49949;43.060;25.624;2023-09-18T14:44:04;26.50;67.60
63802;DHT22;49949;43.060;25.624;2023-09-18T14:46:31;26.60;67.70
63802;DHT22;49949;43.060;25.624;2023-09-18T14:48:59;26.70;67.90
63802;DHT22;49949;43.060;25.624;2023-09-18T14:51:29;26.90;68.00
63802;DHT22;49949;43.060;25.624;2023-09-18T14:53:55;26.90;66.70
63802;DHT22;49949;43.060;25.624;2023-09-18T14:56:21;26.90;67.60
63802;DHT22;49949;43.060;25.624;2023-09-18T14:58:47;26.80;66.90
63802;DHT22;49949;43.060;25.624;2023-09-18T15:01:12;26.80;66.50
63802;DHT22;49949;43.060;25.624;2023-09-18T15:03:40;26.80;66.70
63802;DHT22;49949;43.060;25.624;2023-09-18T15:06:06;26.80;66.20
63802;DHT22;49949;43.060;25.624;2023-09-18T15:08:36;26.90;66.40
63802;DHT22;49949;43.060;25.624;2023-09-18T15:11:02;26.80;66.90
63802;DHT22;49949;43.060;25.624;2023-09-18T15:13:30;27.00;67.60
63802;DHT22;49949;43.060;25.624;2023-09-18T15:15:56;27.00;66.40
63802;DHT22;49949;43.060;25.624;2023-09-18T15:18:22;27.00;65.80
63802;DHT22;49949;43.060;25.624;2023-09-18T15:20:48;26.90;66.40
63802;DHT22;49949;43.060;25.624;2023-09-18T15:23:23;26.80;67.10
63802;DHT22;49949;43.060;25.624;2023-09-18T15:25:49;26.60;66.90
63802;DHT22;49949;43.060;25.624;2023-09-18T15:28:16;26.60;67.40
63802;DHT22;49949;43.060;25.624;2023-09-18T15:30:43;26.50;68.10
63802;DHT22;49949;43.060;25.624;2023-09-18T15:33:09;26.40;68.00
63802;DHT22;49949;43.060;25.624;2023-09-18T15:35:34;26.30;68.60